Station Historical Data
Daily Summary for January 4, 2012 Units:  Both    English   Metric
« Previous Day
Next Day »
Daily Weekly Monthly Yearly Custom
  High: Low: Average:
Temperature: 49.6 °F /  9.8 °C 23.3 °F /  -4.8 °C 35.9 °F /  2.2 °C
Dew Point: 36.8 °F /  2.7 °C 12.9 °F /  -10.6 °C 24.5 °F /  -4.2 °C
Humidity: 85% 36% 64%
Wind Speed: 20.0mph /  32.2km/h - 4.7mph /  7.6km/h
Wind Gust: 27.0mph /  43.5km/h - -
Wind- - South
Pressure: 30.40 in /  1029.3 hPa 30.17 in /  1021.6 hPa -
Precipitation: 0.00 in /  0 mm    
Historical Graphs
 
 
Tabular Data for January 4, 2012
Time Temperature Dew Point Pressure Wind Wind Speed Wind Gust Humidity Rainfall Rate (Hourly) Conditions
00:00 25.6 °F /  -3.6 °C 12.9 °F /  -10.6 °C 30.37in /  1028.3hPa SE 3.0mph /  4.8km/h 5.0mph /  8km/h 58% 0.00in /  0mm
00:01 25.7 °F /  -3.5 °C 13.0 °F /  -10.6 °C 30.37in /  1028.3hPa SE 3.0mph /  4.8km/h 5.0mph /  8km/h 58% 0.00in /  0mm
00:06 25.8 °F /  -3.4 °C 13.5 °F /  -10.3 °C 30.37in /  1028.3hPa SSE 2.0mph /  3.2km/h 5.0mph /  8km/h 59% 0.00in /  0mm
00:11 25.5 °F /  -3.6 °C 13.2 °F /  -10.4 °C 30.38in /  1028.7hPa SSE 2.0mph /  3.2km/h 2.0mph /  3.2km/h 59% 0.00in /  0mm
00:16 25.3 °F /  -3.7 °C 13.4 °F /  -10.3 °C 30.38in /  1028.7hPa SSE 1.0mph /  1.6km/h 2.0mph /  3.2km/h 60% 0.00in /  0mm
00:21 25.0 °F /  -3.9 °C 13.5 °F /  -10.3 °C 30.37in /  1028.3hPa Calm   2.0mph /  3.2km/h 61% 0.00in /  0mm
00:26 24.9 °F /  -3.9 °C 13.7 °F /  -10.2 °C 30.37in /  1028.3hPa SSE 2.0mph /  3.2km/h 3.0mph /  4.8km/h 62% 0.00in /  0mm
00:32 24.6 °F /  -4.1 °C 13.8 °F /  -10.1 °C 30.37in /  1028.3hPa SSE 2.0mph /  3.2km/h 2.0mph /  3.2km/h 63% 0.00in /  0mm
00:37 24.5 °F /  -4.2 °C 13.7 °F /  -10.2 °C 30.37in /  1028.3hPa SE 3.0mph /  4.8km/h 3.0mph /  4.8km/h 63% 0.00in /  0mm
00:38 24.4 °F /  -4.2 °C 14.0 °F /  -10 °C 30.37in /  1028.3hPa SE 2.0mph /  3.2km/h 3.0mph /  4.8km/h 64% 0.00in /  0mm
00:43 24.3 °F /  -4.3 °C 14.2 °F /  -9.9 °C 30.37in /  1028.3hPa SSE 2.0mph /  3.2km/h 3.0mph /  4.8km/h 65% 0.00in /  0mm
00:48 24.3 °F /  -4.3 °C 14.6 °F /  -9.7 °C 30.37in /  1028.3hPa SSE 2.0mph /  3.2km/h 3.0mph /  4.8km/h 66% 0.00in /  0mm
00:53 24.2 °F /  -4.3 °C 14.5 °F /  -9.7 °C 30.37in /  1028.3hPa SSE 3.0mph /  4.8km/h 3.0mph /  4.8km/h 66% 0.00in /  0mm
00:58 24.3 °F /  -4.3 °C 14.6 °F /  -9.7 °C 30.37in /  1028.3hPa SSE 3.0mph /  4.8km/h 4.0mph /  6.4km/h 66% 0.00in /  0mm
01:00 24.3 °F /  -4.3 °C 14.9 °F /  -9.5 °C 30.37in /  1028.3hPa SSE 3.0mph /  4.8km/h 4.0mph /  6.4km/h 67% 0.00in /  0mm
01:03 24.4 °F /  -4.2 °C 14.7 °F /  -9.6 °C 30.38in /  1028.7hPa SSE 2.0mph /  3.2km/h 4.0mph /  6.4km/h 66% 0.00in /  0mm
01:08 24.4 °F /  -4.2 °C 14.7 °F /  -9.6 °C 30.38in /  1028.7hPa SSE 2.0mph /  3.2km/h 3.0mph /  4.8km/h 66% 0.00in /  0mm
01:13 24.4 °F /  -4.2 °C 14.7 °F /  -9.6 °C 30.38in /  1028.7hPa South 3.0mph /  4.8km/h 3.0mph /  4.8km/h 66% 0.00in /  0mm
01:19 24.5 °F /  -4.2 °C 14.8 °F /  -9.6 °C 30.38in /  1028.7hPa South 1.0mph /  1.6km/h 3.0mph /  4.8km/h 66% 0.00in /  0mm
01:24 24.6 °F /  -4.1 °C 14.9 °F /  -9.5 °C 30.38in /  1028.7hPa South 3.0mph /  4.8km/h 3.0mph /  4.8km/h 66% 0.00in /  0mm
01:29 24.5 °F /  -4.2 °C 15.1 °F /  -9.4 °C 30.38in /  1028.7hPa SSE 1.0mph /  1.6km/h 4.0mph /  6.4km/h 67% 0.00in /  0mm
01:30 24.5 °F /  -4.2 °C 15.1 °F /  -9.4 °C 30.38in /  1028.7hPa SSE 2.0mph /  3.2km/h 3.0mph /  4.8km/h 67% 0.00in /  0mm
01:34 24.4 °F /  -4.2 °C 15.0 °F /  -9.4 °C 30.38in /  1028.7hPa SSE 2.0mph /  3.2km/h 3.0mph /  4.8km/h 67% 0.00in /  0mm
01:39 24.2 °F /  -4.3 °C 15.2 °F /  -9.3 °C 30.38in /  1028.7hPa SSE 3.0mph /  4.8km/h 3.0mph /  4.8km/h 68% 0.00in /  0mm
01:44 24.2 °F /  -4.3 °C 15.2 °F /  -9.3 °C 30.38in /  1028.7hPa SSW 1.0mph /  1.6km/h 3.0mph /  4.8km/h 68% 0.00in /  0mm
01:49 24.4 °F /  -4.2 °C 15.4 °F /  -9.2 °C 30.38in /  1028.7hPa SSE 2.0mph /  3.2km/h 4.0mph /  6.4km/h 68% 0.00in /  0mm
01:54 24.2 °F /  -4.3 °C 15.2 °F /  -9.3 °C 30.38in /  1028.7hPa SE 2.0mph /  3.2km/h 3.0mph /  4.8km/h 68% 0.00in /  0mm
01:59 24.1 °F /  -4.4 °C 15.4 °F /  -9.2 °C 30.38in /  1028.7hPa SSE 3.0mph /  4.8km/h 4.0mph /  6.4km/h 69% 0.00in /  0mm
02:00 24.1 °F /  -4.4 °C 15.4 °F /  -9.2 °C 30.38in /  1028.7hPa SSE 2.0mph /  3.2km/h 4.0mph /  6.4km/h 69% 0.00in /  0mm
02:04 24.2 °F /  -4.3 °C 15.5 °F /  -9.2 °C 30.38in /  1028.7hPa SSE 2.0mph /  3.2km/h 3.0mph /  4.8km/h 69% 0.00in /  0mm
02:09 24.3 °F /  -4.3 °C 15.3 °F /  -9.3 °C 30.39in /  1029hPa SE 2.0mph /  3.2km/h 3.0mph /  4.8km/h 68% 0.00in /  0mm
02:14 24.7 °F /  -4.1 °C 15.3 °F /  -9.3 °C 30.39in /  1029hPa SE 2.0mph /  3.2km/h 4.0mph /  6.4km/h 67% 0.00in /  0mm
02:19 25.0 °F /  -3.9 °C 15.6 °F /  -9.1 °C 30.39in /  1029hPa SE 3.0mph /  4.8km/h 3.0mph /  4.8km/h 67% 0.00in /  0mm
02:24 25.0 °F /  -3.9 °C 15.6 °F /  -9.1 °C 30.39in /  1029hPa SE 3.0mph /  4.8km/h 4.0mph /  6.4km/h 67% 0.00in /  0mm
02:29 24.9 °F /  -3.9 °C 15.5 °F /  -9.2 °C 30.39in /  1029hPa SSE 3.0mph /  4.8km/h 4.0mph /  6.4km/h 67% 0.00in /  0mm
02:30 24.8 °F /  -4 °C 15.8 °F /  -9 °C 30.39in /  1029hPa SSE 3.0mph /  4.8km/h 4.0mph /  6.4km/h 68% 0.00in /  0mm
02:34 24.7 °F /  -4.1 °C 15.7 °F /  -9.1 °C 30.39in /  1029hPa SSE 3.0mph /  4.8km/h 4.0mph /  6.4km/h 68% 0.00in /  0mm
02:39 24.6 °F /  -4.1 °C 15.9 °F /  -8.9 °C 30.39in /  1029hPa SE 3.0mph /  4.8km/h 4.0mph /  6.4km/h 69% 0.00in /  0mm
02:44 24.8 °F /  -4 °C 15.8 °F /  -9 °C 30.39in /  1029hPa SE 3.0mph /  4.8km/h 5.0mph /  8km/h 68% 0.00in /  0mm
02:49 25.0 °F /  -3.9 °C 15.6 °F /  -9.1 °C 30.39in /  1029hPa SSE 3.0mph /  4.8km/h 4.0mph /  6.4km/h 67% 0.00in /  0mm
02:54 25.0 °F /  -3.9 °C 15.3 °F /  -9.3 °C 30.39in /  1029hPa SE 2.0mph /  3.2km/h 2.0mph /  3.2km/h 66% 0.00in /  0mm
02:59 25.2 °F /  -3.8 °C 15.4 °F /  -9.2 °C 30.39in /  1029hPa SE 2.0mph /  3.2km/h 2.0mph /  3.2km/h 66% 0.00in /  0mm
03:00 25.3 °F /  -3.7 °C 15.2 °F /  -9.3 °C 30.39in /  1029hPa SE 1.0mph /  1.6km/h 2.0mph /  3.2km/h 65% 0.00in /  0mm
03:04 25.4 °F /  -3.7 °C 15.3 °F /  -9.3 °C 30.39in /  1029hPa ESE 2.0mph /  3.2km/h 2.0mph /  3.2km/h 65% 0.00in /  0mm
03:09 25.3 °F /  -3.7 °C 15.6 °F /  -9.1 °C 30.40in /  1029.3hPa ESE 2.0mph /  3.2km/h 2.0mph /  3.2km/h 66% 0.00in /  0mm
03:14 25.1 °F /  -3.8 °C 15.4 °F /  -9.2 °C 30.40in /  1029.3hPa ESE 2.0mph /  3.2km/h 3.0mph /  4.8km/h 66% 0.00in /  0mm
03:19 25.2 °F /  -3.8 °C 15.4 °F /  -9.2 °C 30.40in /  1029.3hPa SE 2.0mph /  3.2km/h 3.0mph /  4.8km/h 66% 0.00in /  0mm
03:24 25.2 °F /  -3.8 °C 15.1 °F /  -9.4 °C 30.40in /  1029.3hPa ESE 1.0mph /  1.6km/h 1.0mph /  1.6km/h 65% 0.00in /  0mm
03:29 25.3 °F /  -3.7 °C 15.2 °F /  -9.3 °C 30.40in /  1029.3hPa SE 2.0mph /  3.2km/h 2.0mph /  3.2km/h 65% 0.00in /  0mm
03:30 25.3 °F /  -3.7 °C 15.2 °F /  -9.3 °C 30.40in /  1029.3hPa ESE 2.0mph /  3.2km/h 2.0mph /  3.2km/h 65% 0.00in /  0mm
03:34 25.4 °F /  -3.7 °C 14.9 °F /  -9.5 °C 30.40in /  1029.3hPa ESE 3.0mph /  4.8km/h 3.0mph /  4.8km/h 64% 0.00in /  0mm
03:39 25.2 °F /  -3.8 °C 15.1 °F /  -9.4 °C 30.40in /  1029.3hPa ESE 2.0mph /  3.2km/h 3.0mph /  4.8km/h 65% 0.00in /  0mm
03:44 25.2 °F /  -3.8 °C 15.1 °F /  -9.4 °C 30.40in /  1029.3hPa SE 2.0mph /  3.2km/h 3.0mph /  4.8km/h 65% 0.00in /  0mm
03:49 25.0 °F /  -3.9 °C 15.3 °F /  -9.3 °C 30.39in /  1029hPa SE 1.0mph /  1.6km/h 2.0mph /  3.2km/h 66% 0.00in /  0mm
03:54 24.6 °F /  -4.1 °C 15.2 °F /  -9.3 °C 30.39in /  1029hPa SE 2.0mph /  3.2km/h 2.0mph /  3.2km/h 67% 0.00in /  0mm
03:59 24.4 °F /  -4.2 °C 15.4 °F /  -9.2 °C 30.39in /  1029hPa SE 3.0mph /  4.8km/h 3.0mph /  4.8km/h 68% 0.00in /  0mm
04:00 24.4 °F /  -4.2 °C 15.4 °F /  -9.2 °C 30.39in /  1029hPa SE 2.0mph /  3.2km/h 3.0mph /  4.8km/h 68% 0.00in /  0mm
04:04 24.2 °F /  -4.3 °C 15.2 °F /  -9.3 °C 30.39in /  1029hPa SSE 3.0mph /  4.8km/h 4.0mph /  6.4km/h 68% 0.00in /  0mm
04:09 24.1 °F /  -4.4 °C 15.4 °F /  -9.2 °C 30.38in /  1028.7hPa SSE 3.0mph /  4.8km/h 4.0mph /  6.4km/h 69% 0.00in /  0mm
04:14 24.0 °F /  -4.4 °C 15.3 °F /  -9.3 °C 30.39in /  1029hPa SE 4.0mph /  6.4km/h 5.0mph /  8km/h 69% 0.00in /  0mm
04:19 24.1 °F /  -4.4 °C 15.4 °F /  -9.2 °C 30.39in /  1029hPa SSE 2.0mph /  3.2km/h 3.0mph /  4.8km/h 69% 0.00in /  0mm
04:24 24.0 °F /  -4.4 °C 15.3 °F /  -9.3 °C 30.39in /  1029hPa SSE 3.0mph /  4.8km/h 3.0mph /  4.8km/h 69% 0.00in /  0mm
04:29 23.9 °F /  -4.5 °C 15.2 °F /  -9.3 °C 30.39in /  1029hPa SSE 3.0mph /  4.8km/h 4.0mph /  6.4km/h 69% 0.00in /  0mm
04:30 23.8 °F /  -4.6 °C 15.1 °F /  -9.4 °C 30.38in /  1028.7hPa SSE 4.0mph /  6.4km/h 4.0mph /  6.4km/h 69% 0.00in /  0mm
04:35 23.5 °F /  -4.7 °C 15.2 °F /  -9.3 °C 30.38in /  1028.7hPa SSE 4.0mph /  6.4km/h 5.0mph /  8km/h 70% 0.00in /  0mm
04:40 23.4 °F /  -4.8 °C 15.4 °F /  -9.2 °C 30.37in /  1028.3hPa SE 4.0mph /  6.4km/h 6.0mph /  9.7km/h 71% 0.00in /  0mm
04:45 23.8 °F /  -4.6 °C 15.8 °F /  -9 °C 30.37in /  1028.3hPa SSE 4.0mph /  6.4km/h 6.0mph /  9.7km/h 71% 0.00in /  0mm
04:50 24.0 °F /  -4.4 °C 16.0 °F /  -8.9 °C 30.37in /  1028.3hPa SSE 4.0mph /  6.4km/h 6.0mph /  9.7km/h 71% 0.00in /  0mm
04:55 24.0 °F /  -4.4 °C 15.6 °F /  -9.1 °C 30.37in /  1028.3hPa SE 4.0mph /  6.4km/h 6.0mph /  9.7km/h 70% 0.00in /  0mm
05:00 24.1 °F /  -4.4 °C 15.8 °F /  -9 °C 30.37in /  1028.3hPa SE 4.0mph /  6.4km/h 6.0mph /  9.7km/h 70% 0.00in /  0mm
05:05 24.2 °F /  -4.3 °C 15.5 °F /  -9.2 °C 30.37in /  1028.3hPa SSE 6.0mph /  9.7km/h 6.0mph /  9.7km/h 69% 0.00in /  0mm
05:10 24.2 °F /  -4.3 °C 15.5 °F /  -9.2 °C 30.37in /  1028.3hPa South 4.0mph /  6.4km/h 4.0mph /  6.4km/h 69% 0.00in /  0mm
05:15 24.2 °F /  -4.3 °C 15.5 °F /  -9.2 °C 30.37in /  1028.3hPa SSE 3.0mph /  4.8km/h 4.0mph /  6.4km/h 69% 0.00in /  0mm
05:20 24.1 °F /  -4.4 °C 15.4 °F /  -9.2 °C 30.37in /  1028.3hPa SSE 3.0mph /  4.8km/h 5.0mph /  8km/h 69% 0.00in /  0mm
05:25 24.3 °F /  -4.3 °C 15.3 °F /  -9.3 °C 30.36in /  1028hPa SSE 4.0mph /  6.4km/h 6.0mph /  9.7km/h 68% 0.00in /  0mm
05:30 24.2 °F /  -4.3 °C 15.5 °F /  -9.2 °C 30.36in /  1028hPa SE 4.0mph /  6.4km/h 5.0mph /  8km/h 69% 0.00in /  0mm
05:35 24.1 °F /  -4.4 °C 15.4 °F /  -9.2 °C 30.36in /  1028hPa SSE 4.0mph /  6.4km/h 5.0mph /  8km/h 69% 0.00in /  0mm
05:36 24.1 °F /  -4.4 °C 15.4 °F /  -9.2 °C 30.36in /  1028hPa SE 3.0mph /  4.8km/h 5.0mph /  8km/h 69% 0.00in /  0mm
05:41 24.1 °F /  -4.4 °C 15.4 °F /  -9.2 °C 30.36in /  1028hPa SSE 4.0mph /  6.4km/h 8.0mph /  12.9km/h 69% 0.00in /  0mm
05:46 24.3 °F /  -4.3 °C 15.3 °F /  -9.3 °C 30.36in /  1028hPa SSE 5.0mph /  8km/h 5.0mph /  8km/h 68% 0.00in /  0mm
05:51 24.3 °F /  -4.3 °C 14.9 °F /  -9.5 °C 30.36in /  1028hPa South 3.0mph /  4.8km/h 5.0mph /  8km/h 67% 0.00in /  0mm
05:56 24.4 °F /  -4.2 °C 15.4 °F /  -9.2 °C 30.36in /  1028hPa SSE 3.0mph /  4.8km/h 4.0mph /  6.4km/h 68% 0.00in /  0mm
06:00 24.4 °F /  -4.2 °C 15.4 °F /  -9.2 °C 30.36in /  1028hPa SE 3.0mph /  4.8km/h 6.0mph /  9.7km/h 68% 0.00in /  0mm
06:01 24.4 °F /  -4.2 °C 15.4 °F /  -9.2 °C 30.35in /  1027.7hPa SSE 3.0mph /  4.8km/h 6.0mph /  9.7km/h 68% 0.00in /  0mm
06:06 24.5 °F /  -4.2 °C 15.1 °F /  -9.4 °C 30.36in /  1028hPa SSE 3.0mph /  4.8km/h 5.0mph /  8km/h 67% 0.00in /  0mm
06:11 24.6 °F /  -4.1 °C 14.9 °F /  -9.5 °C 30.37in /  1028.3hPa SSW 1.0mph /  1.6km/h 3.0mph /  4.8km/h 66% 0.00in /  0mm
06:16 24.6 °F /  -4.1 °C 14.5 °F /  -9.7 °C 30.37in /  1028.3hPa South 2.0mph /  3.2km/h 3.0mph /  4.8km/h 65% 0.00in /  0mm
06:21 24.3 °F /  -4.3 °C 14.6 °F /  -9.7 °C 30.37in /  1028.3hPa SSE 2.0mph /  3.2km/h 3.0mph /  4.8km/h 66% 0.00in /  0mm
06:26 24.0 °F /  -4.4 °C 14.6 °F /  -9.7 °C 30.37in /  1028.3hPa SSE 3.0mph /  4.8km/h 4.0mph /  6.4km/h 67% 0.00in /  0mm
06:30 23.8 °F /  -4.6 °C 14.8 °F /  -9.6 °C 30.37in /  1028.3hPa South 2.0mph /  3.2km/h 3.0mph /  4.8km/h 68% 0.00in /  0mm
06:31 23.8 °F /  -4.6 °C 14.8 °F /  -9.6 °C 30.37in /  1028.3hPa South 2.0mph /  3.2km/h 3.0mph /  4.8km/h 68% 0.00in /  0mm
06:36 23.6 °F /  -4.7 °C 14.6 °F /  -9.7 °C 30.36in /  1028hPa SSE 4.0mph /  6.4km/h 4.0mph /  6.4km/h 68% 0.00in /  0mm
06:41 23.3 °F /  -4.8 °C 15.0 °F /  -9.4 °C 30.36in /  1028hPa SSE 4.0mph /  6.4km/h 5.0mph /  8km/h 70% 0.00in /  0mm
06:46 23.6 °F /  -4.7 °C 14.9 °F /  -9.5 °C 30.36in /  1028hPa SSE 4.0mph /  6.4km/h 6.0mph /  9.7km/h 69% 0.00in /  0mm
06:51 23.8 °F /  -4.6 °C 14.8 °F /  -9.6 °C 30.35in /  1027.7hPa SSE 5.0mph /  8km/h 5.0mph /  8km/h 68% 0.00in /  0mm
06:56 23.9 °F /  -4.5 °C 14.9 °F /  -9.5 °C 30.35in /  1027.7hPa SSE 5.0mph /  8km/h 6.0mph /  9.7km/h 68% 0.00in /  0mm
07:00 24.1 °F /  -4.4 °C 15.1 °F /  -9.4 °C 30.35in /  1027.7hPa SSE 5.0mph /  8km/h 6.0mph /  9.7km/h 68% 0.00in /  0mm
07:01 24.1 °F /  -4.4 °C 15.1 °F /  -9.4 °C 30.35in /  1027.7hPa SSE 5.0mph /  8km/h 6.0mph /  9.7km/h 68% 0.00in /  0mm
07:06 24.1 °F /  -4.4 °C 15.1 °F /  -9.4 °C 30.35in /  1027.7hPa SSE 5.0mph /  8km/h 6.0mph /  9.7km/h 68% 0.00in /  0mm
07:11 24.0 °F /  -4.4 °C 15.0 °F /  -9.4 °C 30.36in /  1028hPa SSE 3.0mph /  4.8km/h 6.0mph /  9.7km/h 68% 0.00in /  0mm
07:16 24.1 °F /  -4.4 °C 15.1 °F /  -9.4 °C 30.36in /  1028hPa South 3.0mph /  4.8km/h 4.0mph /  6.4km/h 68% 0.00in /  0mm
07:21 24.2 °F /  -4.3 °C 14.8 °F /  -9.6 °C 30.36in /  1028hPa South 3.0mph /  4.8km/h 4.0mph /  6.4km/h 67% 0.00in /  0mm
07:26 24.2 °F /  -4.3 °C 14.8 °F /  -9.6 °C 30.36in /  1028hPa SSE 4.0mph /  6.4km/h 5.0mph /  8km/h 67% 0.00in /  0mm
07:30 24.1 °F /  -4.4 °C 14.7 °F /  -9.6 °C 30.36in /  1028hPa SSE 4.0mph /  6.4km/h 4.0mph /  6.4km/h 67% 0.00in /  0mm
07:31 24.1 °F /  -4.4 °C 14.7 °F /  -9.6 °C 30.36in /  1028hPa SSE 5.0mph /  8km/h 5.0mph /  8km/h 67% 0.00in /  0mm
07:36 24.0 °F /  -4.4 °C 14.6 °F /  -9.7 °C 30.36in /  1028hPa SSE 3.0mph /  4.8km/h 5.0mph /  8km/h 67% 0.00in /  0mm
07:41 24.0 °F /  -4.4 °C 14.6 °F /  -9.7 °C 30.36in /  1028hPa SSE 4.0mph /  6.4km/h 5.0mph /  8km/h 67% 0.00in /  0mm
07:46 24.0 °F /  -4.4 °C 14.6 °F /  -9.7 °C 30.36in /  1028hPa SSE 3.0mph /  4.8km/h 5.0mph /  8km/h 67% 0.00in /  0mm
07:51 23.9 °F /  -4.5 °C 14.6 °F /  -9.7 °C 30.36in /  1028hPa SSE 4.0mph /  6.4km/h 5.0mph /  8km/h 67% 0.00in /  0mm
07:56 24.0 °F /  -4.4 °C 14.6 °F /  -9.7 °C 30.35in /  1027.7hPa SSE 5.0mph /  8km/h 7.0mph /  11.3km/h 67% 0.00in /  0mm
08:00 24.2 °F /  -4.3 °C 14.5 °F /  -9.7 °C 30.35in /  1027.7hPa SSE 7.0mph /  11.3km/h 7.0mph /  11.3km/h 66% 0.00in /  0mm
08:01 24.3 °F /  -4.3 °C 14.6 °F /  -9.7 °C 30.35in /  1027.7hPa South 6.0mph /  9.7km/h 7.0mph /  11.3km/h 66% 0.00in /  0mm
08:06 24.5 °F /  -4.2 °C 14.8 °F /  -9.6 °C 30.35in /  1027.7hPa SE 5.0mph /  8km/h 7.0mph /  11.3km/h 66% 0.00in /  0mm
08:11 24.8 °F /  -4 °C 15.1 °F /  -9.4 °C 30.35in /  1027.7hPa SE 5.0mph /  8km/h 7.0mph /  11.3km/h 66% 0.00in /  0mm
08:16 25.1 °F /  -3.8 °C 15.0 °F /  -9.4 °C 30.35in /  1027.7hPa SSE 6.0mph /  9.7km/h 6.0mph /  9.7km/h 65% 0.00in /  0mm
08:21 25.3 °F /  -3.7 °C 14.8 °F /  -9.6 °C 30.35in /  1027.7hPa SSE 4.0mph /  6.4km/h 5.0mph /  8km/h 64% 0.00in /  0mm
08:26 25.8 °F /  -3.4 °C 15.0 °F /  -9.4 °C 30.35in /  1027.7hPa South 6.0mph /  9.7km/h 7.0mph /  11.3km/h 63% 0.00in /  0mm
08:30 26.1 °F /  -3.3 °C 15.2 °F /  -9.3 °C 30.35in /  1027.7hPa SSW 6.0mph /  9.7km/h 7.0mph /  11.3km/h 63% 0.00in /  0mm
08:31 26.1 °F /  -3.3 °C 15.2 °F /  -9.3 °C 30.35in /  1027.7hPa SE 6.0mph /  9.7km/h 7.0mph /  11.3km/h 63% 0.00in /  0mm
08:36 26.7 °F /  -2.9 °C 15.4 °F /  -9.2 °C 30.34in /  1027.3hPa SSE 5.0mph /  8km/h 6.0mph /  9.7km/h 62% 0.00in /  0mm
08:41 27.2 °F /  -2.7 °C 15.6 °F /  -9.1 °C 30.34in /  1027.3hPa SSE 5.0mph /  8km/h 8.0mph /  12.9km/h 61% 0.00in /  0mm
08:46 27.6 °F /  -2.4 °C 15.6 °F /  -9.1 °C 30.35in /  1027.7hPa SSE 7.0mph /  11.3km/h 8.0mph /  12.9km/h 60% 0.00in /  0mm
08:51 28.2 °F /  -2.1 °C 15.7 °F /  -9.1 °C 30.35in /  1027.7hPa SSE 6.0mph /  9.7km/h 7.0mph /  11.3km/h 59% 0.00in /  0mm
08:56 28.8 °F /  -1.8 °C 15.9 °F /  -8.9 °C 30.35in /  1027.7hPa SSE 5.0mph /  8km/h 9.0mph /  14.5km/h 58% 0.00in /  0mm
09:00 29.1 °F /  -1.6 °C 16.2 °F /  -8.8 °C 30.35in /  1027.7hPa SSE 6.0mph /  9.7km/h 9.0mph /  14.5km/h 58% 0.00in /  0mm
09:01 29.2 °F /  -1.6 °C 15.9 °F /  -8.9 °C 30.35in /  1027.7hPa South 5.0mph /  8km/h 9.0mph /  14.5km/h 57% 0.00in /  0mm
09:06 29.6 °F /  -1.3 °C 16.2 °F /  -8.8 °C 30.35in /  1027.7hPa South 3.0mph /  4.8km/h 11.0mph /  17.7km/h 57% 0.00in /  0mm
09:11 30.0 °F /  -1.1 °C 16.2 °F /  -8.8 °C 30.35in /  1027.7hPa SSE 5.0mph /  8km/h 7.0mph /  11.3km/h 56% 0.00in /  0mm
09:16 30.5 °F /  -0.8 °C 16.7 °F /  -8.5 °C 30.35in /  1027.7hPa South 5.0mph /  8km/h 5.0mph /  8km/h 56% 0.00in /  0mm
09:21 30.8 °F /  -0.7 °C 15.7 °F /  -9.1 °C 30.34in /  1027.3hPa SSE 8.0mph /  12.9km/h 8.0mph /  12.9km/h 53% 0.00in /  0mm
09:27 31.1 °F /  -0.5 °C 16.4 °F /  -8.7 °C 30.35in /  1027.7hPa SSE 5.0mph /  8km/h 9.0mph /  14.5km/h 54% 0.00in /  0mm
09:30 31.3 °F /  -0.4 °C 16.2 °F /  -8.8 °C 30.34in /  1027.3hPa SE 6.0mph /  9.7km/h 9.0mph /  14.5km/h 53% 0.00in /  0mm
09:32 31.3 °F /  -0.4 °C 16.2 °F /  -8.8 °C 30.34in /  1027.3hPa SE 4.0mph /  6.4km/h 9.0mph /  14.5km/h 53% 0.00in /  0mm
09:37 31.6 °F /  -0.2 °C 16.9 °F /  -8.4 °C 30.35in /  1027.7hPa SSE 6.0mph /  9.7km/h 7.0mph /  11.3km/h 54% 0.00in /  0mm
09:42 31.9 °F /  -0.1 °C 16.7 °F /  -8.5 °C 30.35in /  1027.7hPa South 6.0mph /  9.7km/h 8.0mph /  12.9km/h 53% 0.00in /  0mm
09:47 32.3 °F /  0.2 °C 17.5 °F /  -8.1 °C 30.35in /  1027.7hPa SSW 4.0mph /  6.4km/h 7.0mph /  11.3km/h 54% 0.00in /  0mm
09:52 32.8 °F /  0.4 °C 17.1 °F /  -8.3 °C 30.35in /  1027.7hPa SSW 5.0mph /  8km/h 5.0mph /  8km/h 52% 0.00in /  0mm
09:57 33.3 °F /  0.7 °C 16.7 °F /  -8.5 °C 30.34in /  1027.3hPa SW 7.0mph /  11.3km/h 8.0mph /  12.9km/h 50% 0.00in /  0mm
10:00 33.7 °F /  0.9 °C 17.5 °F /  -8.1 °C 30.35in /  1027.7hPa SSW 4.0mph /  6.4km/h 9.0mph /  14.5km/h 51% 0.00in /  0mm
10:02 33.9 °F /  1.1 °C 17.7 °F /  -7.9 °C 30.35in /  1027.7hPa SSW 6.0mph /  9.7km/h 9.0mph /  14.5km/h 51% 0.00in /  0mm
10:07 34.6 °F /  1.4 °C 17.9 °F /  -7.8 °C 30.34in /  1027.3hPa SSE 5.0mph /  8km/h 8.0mph /  12.9km/h 50% 0.00in /  0mm
10:12 35.2 °F /  1.8 °C 18.4 °F /  -7.6 °C 30.34in /  1027.3hPa SSW 5.0mph /  8km/h 11.0mph /  17.7km/h 50% 0.00in /  0mm
10:17 35.5 °F /  1.9 °C 17.3 °F /  -8.2 °C 30.34in /  1027.3hPa SSE 6.0mph /  9.7km/h 9.0mph /  14.5km/h 47% 0.00in /  0mm
10:22 35.6 °F /  2 °C 16.4 °F /  -8.7 °C 30.34in /  1027.3hPa SSW 4.0mph /  6.4km/h 12.0mph /  19.3km/h 45% 0.00in /  0mm
10:27 36.2 °F /  2.3 °C 17.4 °F /  -8.1 °C 30.34in /  1027.3hPa South 6.0mph /  9.7km/h 8.0mph /  12.9km/h 46% 0.00in /  0mm
10:30 36.5 °F /  2.5 °C 17.2 °F /  -8.2 °C 30.35in /  1027.7hPa SSW 3.0mph /  4.8km/h 11.0mph /  17.7km/h 45% 0.00in /  0mm
10:32 36.6 °F /  2.6 °C 17.3 °F /  -8.2 °C 30.35in /  1027.7hPa SE 3.0mph /  4.8km/h 11.0mph /  17.7km/h 45% 0.00in /  0mm
10:37 36.9 °F /  2.7 °C 17.6 °F /  -8 °C 30.34in /  1027.3hPa SSW 8.0mph /  12.9km/h 10.0mph /  16.1km/h 45% 0.00in /  0mm
10:42 37.4 °F /  3 °C 18.0 °F /  -7.8 °C 30.35in /  1027.7hPa South 6.0mph /  9.7km/h 7.0mph /  11.3km/h 45% 0.00in /  0mm
10:47 37.6 °F /  3.1 °C 17.1 °F /  -8.3 °C 30.35in /  1027.7hPa SSW 4.0mph /  6.4km/h 10.0mph /  16.1km/h 43% 0.00in /  0mm
10:52 38.2 °F /  3.4 °C 17.7 °F /  -7.9 °C 30.34in /  1027.3hPa SW 9.0mph /  14.5km/h 12.0mph /  19.3km/h 43% 0.00in /  0mm
10:57 38.5 °F /  3.6 °C 18.0 °F /  -7.8 °C 30.34in /  1027.3hPa WSW 9.0mph /  14.5km/h 10.0mph /  16.1km/h 43% 0.00in /  0mm
11:00 38.8 °F /  3.8 °C 17.7 °F /  -7.9 °C 30.34in /  1027.3hPa South 8.0mph /  12.9km/h 11.0mph /  17.7km/h 42% 0.00in /  0mm
11:02 38.8 °F /  3.8 °C 17.1 °F /  -8.3 °C 30.34in /  1027.3hPa SSW 4.0mph /  6.4km/h 11.0mph /  17.7km/h 41% 0.00in /  0mm
11:07 39.3 °F /  4.1 °C 18.7 °F /  -7.4 °C 30.33in /  1027hPa SSE 9.0mph /  14.5km/h 11.0mph /  17.7km/h 43% 0.00in /  0mm
11:12 40.0 °F /  4.4 °C 19.3 °F /  -7.1 °C 30.32in /  1026.6hPa WSW 8.0mph /  12.9km/h 11.0mph /  17.7km/h 43% 0.00in /  0mm
11:17 40.4 °F /  4.7 °C 18.0 °F /  -7.8 °C 30.32in /  1026.6hPa SSW 9.0mph /  14.5km/h 12.0mph /  19.3km/h 40% 0.00in /  0mm
11:22 40.8 °F /  4.9 °C 18.4 °F /  -7.6 °C 30.32in /  1026.6hPa South 12.0mph /  19.3km/h 12.0mph /  19.3km/h 40% 0.00in /  0mm
11:27 41.2 °F /  5.1 °C 18.1 °F /  -7.7 °C 30.31in /  1026.3hPa SW 10.0mph /  16.1km/h 13.0mph /  20.9km/h 39% 0.00in /  0mm
11:30 41.3 °F /  5.2 °C 18.8 °F /  -7.3 °C 30.31in /  1026.3hPa SSW 9.0mph /  14.5km/h 10.0mph /  16.1km/h 40% 0.00in /  0mm
11:32 41.4 °F /  5.2 °C 19.5 °F /  -6.9 °C 30.31in /  1026.3hPa South 11.0mph /  17.7km/h 11.0mph /  17.7km/h 41% 0.00in /  0mm
11:37 41.9 °F /  5.5 °C 18.2 °F /  -7.7 °C 30.31in /  1026.3hPa SW 6.0mph /  9.7km/h 15.0mph /  24.1km/h 38% 0.00in /  0mm
11:43 42.4 °F /  5.8 °C 19.8 °F /  -6.8 °C 30.30in /  1026hPa WSW 4.0mph /  6.4km/h 13.0mph /  20.9km/h 40% 0.00in /  0mm
11:48 43.4 °F /  6.3 °C 20.1 °F /  -6.6 °C 30.30in /  1026hPa South 6.0mph /  9.7km/h 9.0mph /  14.5km/h 39% 0.00in /  0mm
11:53 43.7 °F /  6.5 °C 19.8 °F /  -6.8 °C 30.30in /  1026hPa SW 9.0mph /  14.5km/h 12.0mph /  19.3km/h 38% 0.00in /  0mm
11:58 44.1 °F /  6.7 °C 20.1 °F /  -6.6 °C 30.29in /  1025.6hPa SW 11.0mph /  17.7km/h 13.0mph /  20.9km/h 38% 0.00in /  0mm
12:00 44.4 °F /  6.9 °C 20.4 °F /  -6.4 °C 30.29in /  1025.6hPa SW 9.0mph /  14.5km/h 11.0mph /  17.7km/h 38% 0.00in /  0mm
12:03 44.5 °F /  6.9 °C 20.5 °F /  -6.4 °C 30.29in /  1025.6hPa WSW 6.0mph /  9.7km/h 11.0mph /  17.7km/h 38% 0.00in /  0mm
12:08 44.4 °F /  6.9 °C 19.8 °F /  -6.8 °C 30.28in /  1025.3hPa SSW 9.0mph /  14.5km/h 15.0mph /  24.1km/h 37% 0.00in /  0mm
12:13 44.7 °F /  7.1 °C 20.0 °F /  -6.7 °C 30.28in /  1025.3hPa SW 9.0mph /  14.5km/h 13.0mph /  20.9km/h 37% 0.00in /  0mm
12:18 45.0 °F /  7.2 °C 20.3 °F /  -6.5 °C 30.27in /  1024.9hPa WSW 10.0mph /  16.1km/h 12.0mph /  19.3km/h 37% 0.00in /  0mm
12:23 45.6 °F /  7.6 °C 21.5 °F /  -5.8 °C 30.26in /  1024.6hPa West 7.0mph /  11.3km/h 12.0mph /  19.3km/h 38% 0.00in /  0mm
12:28 46.4 °F /  8 °C 21.6 °F /  -5.8 °C 30.25in /  1024.3hPa SSW 10.0mph /  16.1km/h 12.0mph /  19.3km/h 37% 0.00in /  0mm
12:30 46.2 °F /  7.9 °C 20.7 °F /  -6.3 °C 30.25in /  1024.3hPa SW 8.0mph /  12.9km/h 15.0mph /  24.1km/h 36% 0.00in /  0mm
12:33 46.3 °F /  7.9 °C 21.5 °F /  -5.8 °C 30.25in /  1024.3hPa SSE 9.0mph /  14.5km/h 15.0mph /  24.1km/h 37% 0.00in /  0mm
12:38 46.7 °F /  8.2 °C 21.8 °F /  -5.7 °C 30.25in /  1024.3hPa SW 10.0mph /  16.1km/h 13.0mph /  20.9km/h 37% 0.00in /  0mm
12:43 47.2 °F /  8.4 °C 22.9 °F /  -5.1 °C 30.24in /  1023.9hPa South 8.0mph /  12.9km/h 13.0mph /  20.9km/h 38% 0.00in /  0mm
12:48 47.2 °F /  8.4 °C 24.1 °F /  -4.4 °C 30.24in /  1023.9hPa SW 9.0mph /  14.5km/h 17.0mph /  27.4km/h 40% 0.00in /  0mm
12:53 47.4 °F /  8.6 °C 23.7 °F /  -4.6 °C 30.23in /  1023.6hPa WSW 7.0mph /  11.3km/h 15.0mph /  24.1km/h 39% 0.00in /  0mm
12:58 47.9 °F /  8.8 °C 27.0 °F /  -2.8 °C 30.23in /  1023.6hPa WSW 14.0mph /  22.5km/h 20.0mph /  32.2km/h 44% 0.00in /  0mm
13:00 48.2 °F /  9 °C 26.8 °F /  -2.9 °C 30.23in /  1023.6hPa SW 14.0mph /  22.5km/h 18.0mph /  29km/h 43% 0.00in /  0mm
13:04 48.1 °F /  8.9 °C 27.2 °F /  -2.7 °C 30.23in /  1023.6hPa WSW 11.0mph /  17.7km/h 18.0mph /  29km/h 44% 0.00in /  0mm
13:09 48.5 °F /  9.2 °C 27.6 °F /  -2.4 °C 30.22in /  1023.2hPa SW 11.0mph /  17.7km/h 16.0mph /  25.7km/h 44% 0.00in /  0mm
13:14 48.8 °F /  9.3 °C 28.4 °F /  -2 °C 30.22in /  1023.2hPa SSW 12.0mph /  19.3km/h 16.0mph /  25.7km/h 45% 0.00in /  0mm
13:19 49.0 °F /  9.4 °C 29.7 °F /  -1.3 °C 30.22in /  1023.2hPa SSW 18.0mph /  29km/h 21.0mph /  33.8km/h 47% 0.00in /  0mm
13:24 49.1 °F /  9.5 °C 30.3 °F /  -0.9 °C 30.21in /  1022.9hPa South 10.0mph /  16.1km/h 19.0mph /  30.6km/h 48% 0.00in /  0mm
13:29 49.2 °F /  9.6 °C 32.3 °F /  0.2 °C 30.21in /  1022.9hPa SW 13.0mph /  20.9km/h 18.0mph /  29km/h 52% 0.00in /  0mm
13:30 49.0 °F /  9.4 °C 32.6 °F /  0.3 °C 30.21in /  1022.9hPa SW 14.0mph /  22.5km/h 18.0mph /  29km/h 53% 0.00in /  0mm
13:34 49.1 °F /  9.5 °C 33.2 °F /  0.7 °C 30.20in /  1022.6hPa SW 13.0mph /  20.9km/h 18.0mph /  29km/h 54% 0.00in /  0mm
13:39 49.2 °F /  9.6 °C 33.7 °F /  0.9 °C 30.20in /  1022.6hPa SW 11.0mph /  17.7km/h 19.0mph /  30.6km/h 55% 0.00in /  0mm
13:44 49.1 °F /  9.5 °C 34.1 °F /  1.2 °C 30.20in /  1022.6hPa WSW 20.0mph /  32.2km/h 20.0mph /  32.2km/h 56% 0.00in /  0mm
13:49 49.0 °F /  9.4 °C 34.9 °F /  1.6 °C 30.20in /  1022.6hPa South 14.0mph /  22.5km/h 16.0mph /  25.7km/h 58% 0.00in /  0mm
13:54 48.8 °F /  9.3 °C 35.5 °F /  1.9 °C 30.19in /  1022.2hPa WSW 10.0mph /  16.1km/h 27.0mph /  43.5km/h 60% 0.00in /  0mm
13:59 49.1 °F /  9.5 °C 36.2 °F /  2.3 °C 30.19in /  1022.2hPa SW 17.0mph /  27.4km/h 17.0mph /  27.4km/h 61% 0.00in /  0mm
14:00 48.9 °F /  9.4 °C 35.6 °F /  2 °C 30.19in /  1022.2hPa SW 16.0mph /  25.7km/h 20.0mph /  32.2km/h 60% 0.00in /  0mm
14:04 49.0 °F /  9.4 °C 36.6 °F /  2.6 °C 30.19in /  1022.2hPa SW 11.0mph /  17.7km/h 18.0mph /  29km/h 62% 0.00in /  0mm
14:09 49.2 °F /  9.6 °C 36.3 °F /  2.4 °C 30.19in /  1022.2hPa West 14.0mph /  22.5km/h 17.0mph /  27.4km/h 61% 0.00in /  0mm
14:14 49.4 °F /  9.7 °C 36.5 °F /  2.5 °C 30.18in /  1021.9hPa SW 14.0mph /  22.5km/h 18.0mph /  29km/h 61% 0.00in /  0mm
14:19 49.2 °F /  9.6 °C 36.8 °F /  2.7 °C 30.18in /  1021.9hPa SW 10.0mph /  16.1km/h 18.0mph /  29km/h 62% 0.00in /  0mm
14:24 49.2 °F /  9.6 °C 36.8 °F /  2.7 °C 30.18in /  1021.9hPa SW 11.0mph /  17.7km/h 16.0mph /  25.7km/h 62% 0.00in /  0mm
14:29 49.1 °F /  9.5 °C 36.2 °F /  2.3 °C 30.18in /  1021.9hPa SSE 11.0mph /  17.7km/h 16.0mph /  25.7km/h 61% 0.00in /  0mm
14:30 49.0 °F /  9.4 °C 36.2 °F /  2.3 °C 30.18in /  1021.9hPa SW 15.0mph /  24.1km/h 20.0mph /  32.2km/h 61% 0.00in /  0mm
14:34 48.7 °F /  9.3 °C 36.3 °F /  2.4 °C 30.18in /  1021.9hPa SSW 11.0mph /  17.7km/h 17.0mph /  27.4km/h 62% 0.00in /  0mm
14:39 49.0 °F /  9.4 °C 36.6 °F /  2.6 °C 30.18in /  1021.9hPa SW 10.0mph /  16.1km/h 15.0mph /  24.1km/h 62% 0.00in /  0mm
14:45 49.2 °F /  9.6 °C 36.8 °F /  2.7 °C 30.18in /  1021.9hPa SW 10.0mph /  16.1km/h 12.0mph /  19.3km/h 62% 0.00in /  0mm
14:50 48.9 °F /  9.4 °C 36.1 °F /  2.3 °C 30.18in /  1021.9hPa South 10.0mph /  16.1km/h 14.0mph /  22.5km/h 61% 0.00in /  0mm
14:55 49.1 °F /  9.5 °C 36.7 °F /  2.6 °C 30.18in /  1021.9hPa SSW 8.0mph /  12.9km/h 16.0mph /  25.7km/h 62% 0.00in /  0mm
15:00 49.2 °F /  9.6 °C 36.3 °F /  2.4 °C 30.18in /  1021.9hPa SW 9.0mph /  14.5km/h 14.0mph /  22.5km/h 61% 0.00in /  0mm
15:05 49.2 °F /  9.6 °C 35.9 °F /  2.2 °C 30.18in /  1021.9hPa WSW 11.0mph /  17.7km/h 13.0mph /  20.9km/h 60% 0.00in /  0mm
15:10 48.9 °F /  9.4 °C 35.6 °F /  2 °C 30.18in /  1021.9hPa WSW 9.0mph /  14.5km/h 13.0mph /  20.9km/h 60% 0.00in /  0mm
15:15 48.7 °F /  9.3 °C 35.9 °F /  2.2 °C 30.18in /  1021.9hPa West 7.0mph /  11.3km/h 12.0mph /  19.3km/h 61% 0.00in /  0mm
15:20 49.2 °F /  9.6 °C 36.3 °F /  2.4 °C 30.19in /  1022.2hPa SSW 7.0mph /  11.3km/h 14.0mph /  22.5km/h 61% 0.00in /  0mm
15:25 49.1 °F /  9.5 °C 35.8 °F /  2.1 °C 30.18in /  1021.9hPa SSW 7.0mph /  11.3km/h 14.0mph /  22.5km/h 60% 0.00in /  0mm
15:30 49.2 °F /  9.6 °C 35.9 °F /  2.2 °C 30.18in /  1021.9hPa WSW 8.0mph /  12.9km/h 14.0mph /  22.5km/h 60% 0.00in /  0mm
15:35 49.1 °F /  9.5 °C 35.8 °F /  2.1 °C 30.17in /  1021.6hPa SW 8.0mph /  12.9km/h 13.0mph /  20.9km/h 60% 0.00in /  0mm
15:40 49.6 °F /  9.8 °C 36.3 °F /  2.4 °C 30.17in /  1021.6hPa SSW 8.0mph /  12.9km/h 11.0mph /  17.7km/h 60% 0.00in /  0mm
15:45 49.4 °F /  9.7 °C 35.7 °F /  2.1 °C 30.17in /  1021.6hPa SW 6.0mph /  9.7km/h 13.0mph /  20.9km/h 59% 0.00in /  0mm
15:50 49.3 °F /  9.6 °C 35.6 °F /  2 °C 30.17in /  1021.6hPa West 5.0mph /  8km/h 14.0mph /  22.5km/h 59% 0.00in /  0mm
15:55 49.2 °F /  9.6 °C 35.9 °F /  2.2 °C 30.17in /  1021.6hPa WSW 7.0mph /  11.3km/h 14.0mph /  22.5km/h 60% 0.00in /  0mm
16:00 49.1 °F /  9.5 °C 35.8 °F /  2.1 °C 30.17in /  1021.6hPa SW 7.0mph /  11.3km/h 14.0mph /  22.5km/h 60% 0.00in /  0mm
16:05 49.1 °F /  9.5 °C 36.2 °F /  2.3 °C 30.17in /  1021.6hPa South 5.0mph /  8km/h 12.0mph /  19.3km/h 61% 0.00in /  0mm
16:10 49.2 °F /  9.6 °C 36.3 °F /  2.4 °C 30.17in /  1021.6hPa SW 11.0mph /  17.7km/h 11.0mph /  17.7km/h 61% 0.00in /  0mm
16:15 49.2 °F /  9.6 °C 36.3 °F /  2.4 °C 30.17in /  1021.6hPa SW 13.0mph /  20.9km/h 13.0mph /  20.9km/h 61% 0.00in /  0mm
16:20 49.1 °F /  9.5 °C 36.2 °F /  2.3 °C 30.17in /  1021.6hPa SW 8.0mph /  12.9km/h 11.0mph /  17.7km/h 61% 0.00in /  0mm
16:25 49.2 °F /  9.6 °C 36.3 °F /  2.4 °C 30.17in /  1021.6hPa WSW 9.0mph /  14.5km/h 14.0mph /  22.5km/h 61% 0.00in /  0mm
16:30 49.1 °F /  9.5 °C 36.2 °F /  2.3 °C 30.17in /  1021.6hPa SW 8.0mph /  12.9km/h 13.0mph /  20.9km/h 61% 0.00in /  0mm
16:35 48.9 °F /  9.4 °C 36.1 °F /  2.3 °C 30.17in /  1021.6hPa WSW 10.0mph /  16.1km/h 16.0mph /  25.7km/h 61% 0.00in /  0mm
16:40 48.9 °F /  9.4 °C 36.1 °F /  2.3 °C 30.17in /  1021.6hPa SW 8.0mph /  12.9km/h 12.0mph /  19.3km/h 61% 0.00in /  0mm
16:45 48.8 °F /  9.3 °C 36.4 °F /  2.4 °C 30.17in /  1021.6hPa WSW 9.0mph /  14.5km/h 13.0mph /  20.9km/h 62% 0.00in /  0mm
16:50 48.8 °F /  9.3 °C 36.4 °F /  2.4 °C 30.18in /  1021.9hPa WSW 4.0mph /  6.4km/h 12.0mph /  19.3km/h 62% 0.00in /  0mm
16:55 48.8 °F /  9.3 °C 36.4 °F /  2.4 °C 30.18in /  1021.9hPa WSW 6.0mph /  9.7km/h 9.0mph /  14.5km/h 62% 0.00in /  0mm
17:00 48.7 °F /  9.3 °C 36.3 °F /  2.4 °C 30.18in /  1021.9hPa SW 8.0mph /  12.9km/h 12.0mph /  19.3km/h 62% 0.00in /  0mm
17:05 48.5 °F /  9.2 °C 36.5 °F /  2.5 °C 30.18in /  1021.9hPa WSW 8.0mph /  12.9km/h 10.0mph /  16.1km/h 63% 0.00in /  0mm
17:10 48.5 °F /  9.2 °C 36.5 °F /  2.5 °C 30.18in /  1021.9hPa SW 12.0mph /  19.3km/h 14.0mph /  22.5km/h 63% 0.00in /  0mm
17:15 48.4 °F /  9.1 °C 36.4 °F /  2.4 °C 30.18in /  1021.9hPa WSW 9.0mph /  14.5km/h 12.0mph /  19.3km/h 63% 0.00in /  0mm
17:20 48.3 °F /  9.1 °C 36.3 °F /  2.4 °C 30.18in /  1021.9hPa SW 5.0mph /  8km/h 10.0mph /  16.1km/h 63% 0.00in /  0mm
17:25 48.1 °F /  8.9 °C 36.5 °F /  2.5 °C 30.19in /  1022.2hPa SW 8.0mph /  12.9km/h 11.0mph /  17.7km/h 64% 0.00in /  0mm
17:30 47.9 °F /  8.8 °C 36.3 °F /  2.4 °C 30.19in /  1022.2hPa WSW 7.0mph /  11.3km/h 9.0mph /  14.5km/h 64% 0.00in /  0mm
17:35 47.6 °F /  8.7 °C 36.4 °F /  2.4 °C 30.19in /  1022.2hPa SW 4.0mph /  6.4km/h 7.0mph /  11.3km/h 65% 0.00in /  0mm
17:36 47.6 °F /  8.7 °C 36.4 °F /  2.4 °C 30.19in /  1022.2hPa SSW 3.0mph /  4.8km/h 7.0mph /  11.3km/h 65% 0.00in /  0mm
17:41 47.2 °F /  8.4 °C 36.4 °F /  2.4 °C 30.19in /  1022.2hPa WSW 5.0mph /  8km/h 6.0mph /  9.7km/h 66% 0.00in /  0mm
17:46 46.7 °F /  8.2 °C 36.3 °F /  2.4 °C 30.20in /  1022.6hPa SW 4.0mph /  6.4km/h 5.0mph /  8km/h 67% 0.00in /  0mm
17:51 46.2 °F /  7.9 °C 36.2 °F /  2.3 °C 30.20in /  1022.6hPa SW 3.0mph /  4.8km/h 5.0mph /  8km/h 68% 0.00in /  0mm
17:56 46.0 °F /  7.8 °C 36.0 °F /  2.2 °C 30.20in /  1022.6hPa SW 3.0mph /  4.8km/h 4.0mph /  6.4km/h 68% 0.00in /  0mm
18:01 45.1 °F /  7.3 °C 35.5 °F /  1.9 °C 30.19in /  1022.2hPa SSW 3.0mph /  4.8km/h 3.0mph /  4.8km/h 69% 0.00in /  0mm
18:06 44.5 °F /  6.9 °C 35.3 °F /  1.8 °C 30.19in /  1022.2hPa SSW 2.0mph /  3.2km/h 3.0mph /  4.8km/h 70% 0.00in /  0mm
18:11 44.3 °F /  6.8 °C 35.5 °F /  1.9 °C 30.19in /  1022.2hPa SSW 2.0mph /  3.2km/h 3.0mph /  4.8km/h 71% 0.00in /  0mm
18:16 44.2 °F /  6.8 °C 35.4 °F /  1.9 °C 30.19in /  1022.2hPa South 2.0mph /  3.2km/h 2.0mph /  3.2km/h 71% 0.00in /  0mm
18:21 44.1 °F /  6.7 °C 35.7 °F /  2.1 °C 30.19in /  1022.2hPa South 2.0mph /  3.2km/h 2.0mph /  3.2km/h 72% 0.00in /  0mm
18:26 44.0 °F /  6.7 °C 35.6 °F /  2 °C 30.19in /  1022.2hPa SSE 1.0mph /  1.6km/h 2.0mph /  3.2km/h 72% 0.00in /  0mm
18:31 43.8 °F /  6.6 °C 35.7 °F /  2.1 °C 30.19in /  1022.2hPa Calm   3.0mph /  4.8km/h 73% 0.00in /  0mm
18:36 43.7 °F /  6.5 °C 35.6 °F /  2 °C 30.19in /  1022.2hPa SSW 1.0mph /  1.6km/h 2.0mph /  3.2km/h 73% 0.00in /  0mm
18:41 43.5 °F /  6.4 °C 35.4 °F /  1.9 °C 30.20in /  1022.6hPa Calm   3.0mph /  4.8km/h 73% 0.00in /  0mm
18:46 43.3 °F /  6.3 °C 35.6 °F /  2 °C 30.20in /  1022.6hPa SSW 1.0mph /  1.6km/h 2.0mph /  3.2km/h 74% 0.00in /  0mm
18:51 43.1 °F /  6.2 °C 35.4 °F /  1.9 °C 30.20in /  1022.6hPa Calm   1.0mph /  1.6km/h 74% 0.00in /  0mm
18:56 42.9 °F /  6.1 °C 35.5 °F /  1.9 °C 30.20in /  1022.6hPa South 2.0mph /  3.2km/h 2.0mph /  3.2km/h 75% 0.00in /  0mm
19:01 42.7 °F /  5.9 °C 35.3 °F /  1.8 °C 30.20in /  1022.6hPa SE 3.0mph /  4.8km/h 3.0mph /  4.8km/h 75% 0.00in /  0mm
19:06 42.7 °F /  5.9 °C 35.7 °F /  2.1 °C 30.19in /  1022.2hPa SSE 2.0mph /  3.2km/h 3.0mph /  4.8km/h 76% 0.00in /  0mm
19:11 42.7 °F /  5.9 °C 35.7 °F /  2.1 °C 30.20in /  1022.6hPa SSE 2.0mph /  3.2km/h 3.0mph /  4.8km/h 76% 0.00in /  0mm
19:16 42.7 °F /  5.9 °C 35.7 °F /  2.1 °C 30.20in /  1022.6hPa South 1.0mph /  1.6km/h 2.0mph /  3.2km/h 76% 0.00in /  0mm
19:21 42.7 °F /  5.9 °C 35.7 °F /  2.1 °C 30.20in /  1022.6hPa Calm   1.0mph /  1.6km/h 76% 0.00in /  0mm
19:26 42.6 °F /  5.9 °C 35.9 °F /  2.2 °C 30.20in /  1022.6hPa SSW 1.0mph /  1.6km/h 2.0mph /  3.2km/h 77% 0.00in /  0mm
19:31 42.5 °F /  5.8 °C 35.5 °F /  1.9 °C 30.20in /  1022.6hPa SW 1.0mph /  1.6km/h 2.0mph /  3.2km/h 76% 0.00in /  0mm
19:36 42.3 °F /  5.7 °C 35.6 °F /  2 °C 30.20in /  1022.6hPa WSW 2.0mph /  3.2km/h 2.0mph /  3.2km/h 77% 0.00in /  0mm
19:41 42.4 °F /  5.8 °C 35.7 °F /  2.1 °C 30.21in /  1022.9hPa WSW 1.0mph /  1.6km/h 2.0mph /  3.2km/h 77% 0.00in /  0mm
19:46 42.7 °F /  5.9 °C 36.0 °F /  2.2 °C 30.21in /  1022.9hPa SW 1.0mph /  1.6km/h 2.0mph /  3.2km/h 77% 0.00in /  0mm
19:52 42.9 °F /  6.1 °C 36.2 °F /  2.3 °C 30.21in /  1022.9hPa WSW 1.0mph /  1.6km/h 2.0mph /  3.2km/h 77% 0.00in /  0mm
19:57 42.6 °F /  5.9 °C 35.9 °F /  2.2 °C 30.22in /  1023.2hPa SW 1.0mph /  1.6km/h 2.0mph /  3.2km/h 77% 0.00in /  0mm
20:02 42.6 °F /  5.9 °C 35.9 °F /  2.2 °C 30.22in /  1023.2hPa WSW 1.0mph /  1.6km/h 2.0mph /  3.2km/h 77% 0.00in /  0mm
20:07 42.4 °F /  5.8 °C 35.7 °F /  2.1 °C 30.23in /  1023.6hPa Calm     77% 0.00in /  0mm
20:12 42.3 °F /  5.7 °C 35.9 °F /  2.2 °C 30.22in /  1023.2hPa WSW 2.0mph /  3.2km/h 2.0mph /  3.2km/h 78% 0.00in /  0mm
20:17 42.5 °F /  5.8 °C 36.1 °F /  2.3 °C 30.23in /  1023.6hPa WSW 1.0mph /  1.6km/h 2.0mph /  3.2km/h 78% 0.00in /  0mm
20:22 42.4 °F /  5.8 °C 36.0 °F /  2.2 °C 30.23in /  1023.6hPa SW 1.0mph /  1.6km/h 3.0mph /  4.8km/h 78% 0.00in /  0mm
20:27 42.5 °F /  5.8 °C 36.1 °F /  2.3 °C 30.23in /  1023.6hPa WSW 1.0mph /  1.6km/h 1.0mph /  1.6km/h 78% 0.00in /  0mm
20:32 42.4 °F /  5.8 °C 36.0 °F /  2.2 °C 30.23in /  1023.6hPa Calm   1.0mph /  1.6km/h 78% 0.00in /  0mm
20:37 42.2 °F /  5.7 °C 36.2 °F /  2.3 °C 30.24in /  1023.9hPa Calm     79% 0.00in /  0mm
20:42 42.2 °F /  5.7 °C 36.2 °F /  2.3 °C 30.24in /  1023.9hPa WSW 1.0mph /  1.6km/h 1.0mph /  1.6km/h 79% 0.00in /  0mm
20:47 42.4 °F /  5.8 °C 36.4 °F /  2.4 °C 30.24in /  1023.9hPa WSW 2.0mph /  3.2km/h 3.0mph /  4.8km/h 79% 0.00in /  0mm
20:52 42.5 °F /  5.8 °C 36.1 °F /  2.3 °C 30.24in /  1023.9hPa West 2.0mph /  3.2km/h 4.0mph /  6.4km/h 78% 0.00in /  0mm
20:57 42.6 °F /  5.9 °C 36.5 °F /  2.5 °C 30.24in /  1023.9hPa WSW 1.0mph /  1.6km/h 2.0mph /  3.2km/h 79% 0.00in /  0mm
21:02 42.5 °F /  5.8 °C 36.5 °F /  2.5 °C 30.24in /  1023.9hPa SW 1.0mph /  1.6km/h 2.0mph /  3.2km/h 79% 0.00in /  0mm
21:07 42.5 °F /  5.8 °C 36.5 °F /  2.5 °C 30.24in /  1023.9hPa WSW 1.0mph /  1.6km/h 2.0mph /  3.2km/h 79% 0.00in /  0mm
21:12 42.3 °F /  5.7 °C 36.3 °F /  2.4 °C 30.24in /  1023.9hPa SW 2.0mph /  3.2km/h 3.0mph /  4.8km/h 79% 0.00in /  0mm
21:17 41.9 °F /  5.5 °C 35.9 °F /  2.2 °C 30.23in /  1023.6hPa Calm   1.0mph /  1.6km/h 79% 0.00in /  0mm
21:22 41.7 °F /  5.4 °C 36.0 °F /  2.2 °C 30.23in /  1023.6hPa SW 2.0mph /  3.2km/h 2.0mph /  3.2km/h 80% 0.00in /  0mm
21:27 41.8 °F /  5.4 °C 36.1 °F /  2.3 °C 30.23in /  1023.6hPa SW 2.0mph /  3.2km/h 3.0mph /  4.8km/h 80% 0.00in /  0mm
21:32 41.8 °F /  5.4 °C 36.1 °F /  2.3 °C 30.23in /  1023.6hPa SW 2.0mph /  3.2km/h 3.0mph /  4.8km/h 80% 0.00in /  0mm
21:37 41.8 °F /  5.4 °C 36.1 °F /  2.3 °C 30.24in /  1023.9hPa WSW 3.0mph /  4.8km/h 3.0mph /  4.8km/h 80% 0.00in /  0mm
21:43 41.8 °F /  5.4 °C 36.1 °F /  2.3 °C 30.24in /  1023.9hPa WSW 1.0mph /  1.6km/h 3.0mph /  4.8km/h 80% 0.00in /  0mm
21:48 41.8 °F /  5.4 °C 36.4 °F /  2.4 °C 30.24in /  1023.9hPa Calm   2.0mph /  3.2km/h 81% 0.00in /  0mm
21:53 41.6 °F /  5.3 °C 36.2 °F /  2.3 °C 30.24in /  1023.9hPa West 1.0mph /  1.6km/h 2.0mph /  3.2km/h 81% 0.00in /  0mm
21:58 41.6 °F /  5.3 °C 36.2 °F /  2.3 °C 30.24in /  1023.9hPa WSW 1.0mph /  1.6km/h 3.0mph /  4.8km/h 81% 0.00in /  0mm
22:03 41.6 °F /  5.3 °C 36.2 °F /  2.3 °C 30.24in /  1023.9hPa WSW 2.0mph /  3.2km/h 3.0mph /  4.8km/h 81% 0.00in /  0mm
22:08 41.5 °F /  5.3 °C 36.1 °F /  2.3 °C 30.24in /  1023.9hPa WSW 2.0mph /  3.2km/h 3.0mph /  4.8km/h 81% 0.00in /  0mm
22:13 41.4 °F /  5.2 °C 36.0 °F /  2.2 °C 30.24in /  1023.9hPa WSW 1.0mph /  1.6km/h 3.0mph /  4.8km/h 81% 0.00in /  0mm
22:18 41.2 °F /  5.1 °C 35.8 °F /  2.1 °C 30.24in /  1023.9hPa WSW 2.0mph /  3.2km/h 2.0mph /  3.2km/h 81% 0.00in /  0mm
22:23 41.2 °F /  5.1 °C 35.8 °F /  2.1 °C 30.24in /  1023.9hPa WSW 1.0mph /  1.6km/h 2.0mph /  3.2km/h 81% 0.00in /  0mm
22:28 41.2 °F /  5.1 °C 35.8 °F /  2.1 °C 30.24in /  1023.9hPa SW 2.0mph /  3.2km/h 2.0mph /  3.2km/h 81% 0.00in /  0mm
22:33 40.9 °F /  4.9 °C 35.5 °F /  1.9 °C 30.24in /  1023.9hPa WSW 1.0mph /  1.6km/h 2.0mph /  3.2km/h 81% 0.00in /  0mm
22:38 40.6 °F /  4.8 °C 35.5 °F /  1.9 °C 30.24in /  1023.9hPa SW 2.0mph /  3.2km/h 2.0mph /  3.2km/h 82% 0.00in /  0mm
22:43 40.3 °F /  4.6 °C 35.6 °F /  2 °C 30.23in /  1023.6hPa SW 2.0mph /  3.2km/h 2.0mph /  3.2km/h 83% 0.00in /  0mm
22:48 40.0 °F /  4.4 °C 35.3 °F /  1.8 °C 30.23in /  1023.6hPa SW 1.0mph /  1.6km/h 2.0mph /  3.2km/h 83% 0.00in /  0mm
22:53 39.9 °F /  4.4 °C 35.5 °F /  1.9 °C 30.24in /  1023.9hPa Calm   2.0mph /  3.2km/h 84% 0.00in /  0mm
22:58 39.9 °F /  4.4 °C 35.5 °F /  1.9 °C 30.23in /  1023.6hPa WSW 1.0mph /  1.6km/h 1.0mph /  1.6km/h 84% 0.00in /  0mm
23:03 40.0 °F /  4.4 °C 35.6 °F /  2 °C 30.23in /  1023.6hPa SW 1.0mph /  1.6km/h 1.0mph /  1.6km/h 84% 0.00in /  0mm
23:08 40.0 °F /  4.4 °C 35.6 °F /  2 °C 30.23in /  1023.6hPa WSW 1.0mph /  1.6km/h 2.0mph /  3.2km/h 84% 0.00in /  0mm
23:13 39.9 °F /  4.4 °C 35.5 °F /  1.9 °C 30.23in /  1023.6hPa Calm   2.0mph /  3.2km/h 84% 0.00in /  0mm
23:18 39.6 °F /  4.2 °C 35.2 °F /  1.8 °C 30.23in /  1023.6hPa Calm   1.0mph /  1.6km/h 84% 0.00in /  0mm
23:23 39.5 °F /  4.2 °C 35.1 °F /  1.7 °C 30.23in /  1023.6hPa Calm   1.0mph /  1.6km/h 84% 0.00in /  0mm
23:28 39.4 °F /  4.1 °C 35.3 °F /  1.8 °C 30.23in /  1023.6hPa Calm     85% 0.00in /  0mm
23:33 39.3 °F /  4.1 °C 35.2 °F /  1.8 °C 30.23in /  1023.6hPa Calm   1.0mph /  1.6km/h 85% 0.00in /  0mm
23:38 39.6 °F /  4.2 °C 35.5 °F /  1.9 °C 30.23in /  1023.6hPa Calm   1.0mph /  1.6km/h 85% 0.00in /  0mm
23:44 39.7 °F /  4.3 °C 35.3 °F /  1.8 °C 30.23in /  1023.6hPa WSW 1.0mph /  1.6km/h 1.0mph /  1.6km/h 84% 0.00in /  0mm
23:49 39.8 °F /  4.3 °C 35.4 °F /  1.9 °C 30.22in /  1023.2hPa SW 1.0mph /  1.6km/h 2.0mph /  3.2km/h 84% 0.00in /  0mm
23:54 39.7 °F /  4.3 °C 35.3 °F /  1.8 °C 30.22in /  1023.2hPa SW 2.0mph /  3.2km/h 2.0mph /  3.2km/h 84% 0.00in /  0mm
23:59 39.5 °F /  4.2 °C 35.1 °F /  1.7 °C 30.22in /  1023.2hPa WSW 2.0mph /  3.2km/h 2.0mph /  3.2km/h 84% 0.00in /  0mm
Compliments of Weather Underground